Dalian Highway — 3FYE5 — position and weather

sailwx.info

Track history (hours):
 
Tides and Currents Weather Stations Pressure Air Temp Water Temp Dewpoint Dewpoint Depression Visibility Wind Speed Wind Dir Waves Ship Positions

Dalian Highway

Last reported at 2017-Dec-11 13:17 UTC. Time now 2017-Dec-12 20:02 UTC.
Position N 49°59' W 000°56'.

Length 199 m; draft 9.2 m.

Type: Cargo ship. MMSI: 357694000.

Date/timePositionNaut miles runAvg speedWind from/ knotsBaromVisibWave heightAir tempDewpointWater temp
2017-Dec-11 13:17N 49°59' W 000°56'312.2
2017-Dec-11 13:00N 49°57' W 000°51'612.6
2017-Dec-11 12:30N 49°53' W 000°44'510.6
2017-Dec-11 12:00N 49°50' W 000°37'3 6.2
2017-Dec-11 11:30N 49°48' W 000°34'2 4.6
2017-Dec-11 11:00N 49°46' W 000°32'3 5.4
2017-Dec-11 10:30N 49°43' W 000°31'1 1.1
2017-Dec-11 10:00N 49°43' W 000°31'3 6.6
2017-Dec-11 09:30N 49°46' W 000°35'3 6.4
2017-Dec-11 09:00N 49°48' W 000°38'4 7.0
2017-Dec-11 08:30N 49°50' W 000°42'4 7.1
2017-Dec-11 08:00N 49°53' W 000°46'2 4.8
2017-Dec-11 07:30N 49°55' W 000°47'3 6.3
2017-Dec-11 07:00N 49°54' W 000°42'3 6.1
2017-Dec-11 06:30N 49°53' W 000°38'3 5.3
2017-Dec-11 06:00N 49°51' W 000°35'2 4.2
2017-Dec-11 05:30N 49°50' W 000°32'1 2.4
2017-Dec-11 05:00N 49°50' W 000°30'1 1.9
2017-Dec-11 04:30N 49°50' W 000°29'1 1.4
2017-Dec-11 04:00N 49°49' W 000°28'1 2.1
2017-Dec-11 03:30N 49°48' W 000°28'1 2.0
2017-Dec-11 03:00N 49°47' W 000°28'1 2.2
2017-Dec-11 02:30N 49°46' W 000°28'1 1.8
2017-Dec-11 02:00N 49°46' W 000°29'1 1.9
2017-Dec-11 01:30N 49°45' W 000°30'1 2.1
2017-Dec-11 01:00N 49°45' W 000°32'1 2.6
2017-Dec-11 00:30N 49°45' W 000°34'1 2.0
2017-Dec-11 00:00N 49°45' W 000°35'0 1.0
2017-Dec-10 23:30N 49°45' W 000°36'1 1.1
2017-Dec-10 23:00N 49°45' W 000°37'0 0.8
2017-Dec-10 22:30N 49°45' W 000°37'0 0.7
2017-Dec-10 22:00N 49°45' W 000°38'1 2.8
2017-Dec-10 21:30N 49°46' W 000°40'4 8.8
2017-Dec-10 21:00N 49°48' W 000°46'4 8.4
2017-Dec-10 20:30N 49°50' W 000°51'4 8.0
2017-Dec-10 20:00N 49°52' W 000°57'4 7.0
2017-Dec-10 19:30N 49°54' W 001°02'56 9.6
2017-Dec-10 13:42N 49°51' W 002°28'312.5
2017-Dec-10 13:26N 49°50' W 002°33'612.7
2017-Dec-10 12:59N 49°49' W 002°41'712.8
2017-Dec-10 12:28N 49°48' W 002°51'914.8
2017-Dec-10 11:54N 49°46' W 003°04'616.3
2017-Dec-10 11:31N 49°46' W 003°14'816.5
2017-Dec-10 11:00N 49°43' W 003°26'610.8
2017-Dec-10 10:29N 49°42' W 003°35'0 0.7
2017-Dec-10 09:59N 49°42' W 003°35'1 2.1
2017-Dec-10 09:19N 49°43' W 003°33'1 4.1
2017-Dec-10 09:00N 49°44' W 003°31'3 5.6
2017-Dec-10 08:30N 49°45' W 003°28'4 8.6
2017-Dec-10 08:00N 49°47' W 003°22'510.7
2017-Dec-10 07:30N 49°50' W 003°14'714.3
2017-Dec-10 07:00N 49°53' W 003°05'816.1
2017-Dec-10 06:31N 49°57' W 002°54'917.5
2017-Dec-10 06:00N 50°00' W 002°41'1018.9
2017-Dec-10 05:30N 50°03' W 002°27'6317.8
2017-Dec-10 01:59N 50°21' W 000°53'1016.0
2017-Dec-10 01:20N 50°24' W 000°38'515.7
2017-Dec-10 01:00N 50°25' W 000°30'816.0
2017-Dec-10 00:30N 50°29' W 000°18'816.7
2017-Dec-10 00:01N 50°30' W 000°05'917.8
2017-Dec-09 23:31N 50°32' E 000°08'918.2
2017-Dec-09 23:01N 50°35' E 000°22'1019.0
2017-Dec-09 22:31N 50°38' E 000°36'1019.7
2017-Dec-09 22:01N 50°44' E 000°49'1019.8
2017-Dec-09 21:31N 50°50' E 001°01'1019.2
2017-Dec-09 21:00N 50°56' E 001°12'817.0
2017-Dec-09 20:30N 51°03' E 001°21'4 7.4
2017-Dec-09 20:00N 51°06' E 001°23'612.5
2017-Dec-09 19:30N 51°08' E 001°33'713.7
2017-Dec-09 19:00N 51°12' E 001°41'612.6
2017-Dec-09 18:30N 51°17' E 001°47'816.5
2017-Dec-09 18:01N 51°25' E 001°54'816.5
2017-Dec-09 17:30N 51°31' E 002°03'816.6
2017-Dec-09 17:00N 51°37' E 002°12'9116.9
2017-Dec-09 11:37N 52°48' E 003°44'215.6
2017-Dec-09 11:30N 52°49' E 003°46'815.2
2017-Dec-09 11:00N 52°55' E 003°55'815.1
2017-Dec-09 10:30N 52°60' E 004°04'815.0
2017-Dec-09 10:00N 53°05' E 004°14'815.0
2017-Dec-09 09:29N 53°11' E 004°23'714.7
2017-Dec-09 09:00N 53°17' E 004°28'714.4
2017-Dec-09 08:30N 53°24' E 004°32'714.1
2017-Dec-09 07:59N 53°30' E 004°39'714.1
2017-Dec-09 07:30N 53°32' E 004°49'714.8
2017-Dec-09 07:00N 53°35' E 005°01'815.2
2017-Dec-09 06:28N 53°38' E 005°14'815.6
2017-Dec-09 05:56N 53°41' E 005°27'4710.8
2017-Dec-09 01:35N 53°32' E 006°45'1 9.1
2017-Dec-09 01:30N 53°31' E 006°46'612.6
2017-Dec-09 01:01N 53°27' E 006°53'612.9
2017-Dec-09 00:30N 53°22' E 006°59'3 6.8
2017-Dec-09 00:00N 53°19' E 007°03'3 6.8
2017-Dec-08 23:30N 53°20' E 007°09'1 1.3
2017-Dec-08 22:55N 53°20' E 007°10'0 0.0
2017-Dec-08 22:28N 53°20' E 007°10'0 0.0
2017-Dec-08 21:58N 53°20' E 007°10'0 0.0
2017-Dec-08 21:25N 53°20' E 007°10'0 0.0
2017-Dec-08 20:58N 53°20' E 007°10'0 0.0
2017-Dec-08 20:25N 53°20' E 007°10'0 0.0
2017-Dec-08 19:58N 53°20' E 007°10'0 0.0
2017-Dec-08 19:28N 53°20' E 007°10'0 0.0
2017-Dec-08 18:58N 53°20' E 007°10'0 0.0
2017-Dec-08 18:28N 53°20' E 007°10'0 0.0
2017-Dec-08 17:58N 53°20' E 007°10'0 0.0
2017-Dec-08 17:28N 53°20' E 007°10'0 0.0
2017-Dec-08 16:55N 53°20' E 007°10'0 0.0
2017-Dec-08 16:28N 53°20' E 007°10'0 0.0
2017-Dec-08 15:55N 53°20' E 007°10'0 0.0
2017-Dec-08 15:28N 53°20' E 007°10'0 0.0
2017-Dec-08 14:58N 53°20' E 007°10'0 0.0
2017-Dec-08 14:28N 53°20' E 007°10'0 0.0
2017-Dec-08 13:58N 53°20' E 007°10'0 0.0
2017-Dec-08 13:28N 53°20' E 007°10'0 0.0
2017-Dec-08 12:55N 53°20' E 007°10'0 0.0
2017-Dec-08 12:28N 53°20' E 007°10'0 0.0
2017-Dec-08 11:58N 53°20' E 007°10'0 0.0
2017-Dec-08 11:28N 53°20' E 007°10'0 0.0
2017-Dec-08 10:58N 53°20' E 007°10'0 0.0
2017-Dec-08 10:25N 53°20' E 007°10'0 0.0
2017-Dec-08 09:58N 53°20' E 007°10'0 0.0
2017-Dec-08 09:19N 53°20' E 007°10'0 0.0
2017-Dec-08 08:58N 53°20' E 007°10'0 0.0
2017-Dec-08 08:28N 53°20' E 007°10'0 0.0
2017-Dec-08 07:58N 53°20' E 007°10'0 0.0
2017-Dec-08 07:22N 53°20' E 007°10'0 0.0
2017-Dec-08 06:58N 53°20' E 007°10'0 0.0
2017-Dec-08 06:28N 53°20' E 007°10'0 0.0
2017-Dec-08 05:58N 53°20' E 007°10'0 0.0
2017-Dec-08 05:28N 53°20' E 007°10'0 0.0
2017-Dec-08 04:58N 53°20' E 007°10'0 0.0
2017-Dec-08 04:25N 53°20' E 007°10'0 0.0
2017-Dec-08 03:58N 53°20' E 007°10'0 0.0
2017-Dec-08 03:28N 53°20' E 007°10'0 0.0
2017-Dec-08 02:58N 53°20' E 007°10'0 0.0
2017-Dec-08 02:25N 53°20' E 007°10'0 0.0
2017-Dec-08 01:58N 53°20' E 007°10'0 0.0
2017-Dec-08 01:28N 53°20' E 007°10'0 0.0
2017-Dec-08 00:58N 53°20' E 007°10'0 0.0
2017-Dec-08 00:28N 53°20' E 007°10'0 0.0
2017-Dec-07 23:58N 53°20' E 007°10'0 0.0
2017-Dec-07 23:25N 53°20' E 007°10'0 0.0
2017-Dec-07 22:58N 53°20' E 007°10'0 0.0
2017-Dec-07 22:28N 53°20' E 007°10'0 0.0
2017-Dec-07 21:55N 53°20' E 007°10'0 0.0
2017-Dec-07 21:28N 53°20' E 007°10'0 0.0
2017-Dec-07 20:58N 53°20' E 007°10'0 0.0
2017-Dec-07 20:25N 53°20' E 007°10'0 0.0
2017-Dec-07 19:55N 53°20' E 007°10'0 0.0
2017-Dec-07 19:25N 53°20' E 007°10'0 0.0
2017-Dec-07 18:58N 53°20' E 007°10'0 0.0
2017-Dec-07 18:25N 53°20' E 007°10'0 0.0
2017-Dec-07 17:55N 53°20' E 007°10'0 0.0
2017-Dec-07 17:28N 53°20' E 007°10'0 0.0
2017-Dec-07 16:58N 53°20' E 007°10'0 0.0
2017-Dec-07 16:28N 53°20' E 007°10'0 0.0
2017-Dec-07 15:58N 53°20' E 007°10'0 0.0
2017-Dec-07 15:28N 53°20' E 007°10'0 0.4
2017-Dec-07 15:00N 53°20' E 007°10'3 5.8
2017-Dec-07 14:30N 53°20' E 007°05'510.9
2017-Dec-07 14:00N 53°23' E 006°58'815.1
2017-Dec-07 13:30N 53°29' E 006°50'28 3.0
2017-Dec-07 04:04N 53°55' E 007°06'114.9
2017-Dec-07 03:58N 53°56' E 007°08'1914.4
2017-Dec-07 02:39N 53°59' E 007°40'315.8
2017-Dec-07 02:29N 53°57' E 007°43'914.7
2017-Dec-07 01:52N 53°52' E 007°56'615.5
2017-Dec-07 01:30N 53°50' E 008°05'815.5
2017-Dec-07 01:01N 53°44' E 008°14'714.6
2017-Dec-07 00:30N 53°40' E 008°23'611.8
2017-Dec-07 00:00N 53°36' E 008°31'2 4.8
2017-Dec-06 23:30N 53°34' E 008°33'0 0.9
2017-Dec-06 23:00N 53°34' E 008°33'0 0.8
2017-Dec-06 22:30N 53°34' E 008°33'0 0.7
2017-Dec-06 21:59N 53°34' E 008°34'0 0.0
2017-Dec-06 21:28N 53°34' E 008°34'0 0.0
2017-Dec-06 20:59N 53°34' E 008°34'  
2017-Dec-04 10:30N 51°18' E 003°14'0 0.0
2017-Dec-04 10:00N 51°18' E 003°14'0 0.0
2017-Dec-04 09:30N 51°18' E 003°14'0 0.0
2017-Dec-04 09:00N 51°18' E 003°14'0 0.0
2017-Dec-04 08:30N 51°18' E 003°14'0 0.0
2017-Dec-04 08:00N 51°18' E 003°14'0 0.0
2017-Dec-04 07:30N 51°18' E 003°14'0 0.0
2017-Dec-04 07:00N 51°18' E 003°14'0 0.0
2017-Dec-04 06:30N 51°18' E 003°14'0 0.0
2017-Dec-04 06:00N 51°18' E 003°14'0 0.0
2017-Dec-04 05:30N 51°18' E 003°14'0 0.0
2017-Dec-04 05:00N 51°18' E 003°14'0 0.0
2017-Dec-04 04:30N 51°18' E 003°14'0 0.0
2017-Dec-04 04:00N 51°18' E 003°14'0 0.0
2017-Dec-04 03:30N 51°18' E 003°14'0 0.0
2017-Dec-04 03:00N 51°18' E 003°14'0 0.0
2017-Dec-04 02:30N 51°18' E 003°14'0 0.0
2017-Dec-04 02:00N 51°18' E 003°14'0 0.0
2017-Dec-04 01:30N 51°18' E 003°14'0 0.0
2017-Dec-04 01:00N 51°18' E 003°14'0 0.0
2017-Dec-04 00:30N 51°18' E 003°14'0 0.0
2017-Dec-04 00:00N 51°18' E 003°14'0 0.0
2017-Dec-03 23:30N 51°18' E 003°14'0 0.0
2017-Dec-03 23:00N 51°18' E 003°14'0 0.0
2017-Dec-03 22:30N 51°18' E 003°14'0 0.0
2017-Dec-03 22:00N 51°18' E 003°14'0 0.0
2017-Dec-03 21:30N 51°18' E 003°14'0 0.0
2017-Dec-03 20:57N 51°18' E 003°14'0 0.0
2017-Dec-03 20:30N 51°18' E 003°14'0 0.0
2017-Dec-03 20:00N 51°18' E 003°14'0 0.0
2017-Dec-03 19:30N 51°18' E 003°14'0 0.0
2017-Dec-03 19:00N 51°18' E 003°14'0 0.0
2017-Dec-03 18:30N 51°18' E 003°14'0 0.0
2017-Dec-03 18:00N 51°18' E 003°14'0 0.0
2017-Dec-03 17:30N 51°18' E 003°14'0 0.0
2017-Dec-03 17:00N 51°18' E 003°14'0 0.0
2017-Dec-03 16:30N 51°18' E 003°14'0 0.0
2017-Dec-03 15:57N 51°18' E 003°14'0 0.0
2017-Dec-03 15:30N 51°18' E 003°14'0 0.0
2017-Dec-03 15:00N 51°18' E 003°14'0 0.0
2017-Dec-03 14:30N 51°18' E 003°14'1 1.2
2017-Dec-03 14:00N 51°18' E 003°14'0 0.2
2017-Dec-03 13:30N 51°18' E 003°14'0 0.0
2017-Dec-03 13:00N 51°18' E 003°14'0 0.0
2017-Dec-03 12:30N 51°18' E 003°14'0 0.0
2017-Dec-03 12:00N 51°18' E 003°14'0 0.0
2017-Dec-03 11:30N 51°18' E 003°14'0 0.0
2017-Dec-03 11:01N 51°18' E 003°14'0 0.0
2017-Dec-03 10:30N 51°18' E 003°14'0 0.0
2017-Dec-03 10:00N 51°18' E 003°14'0 0.0
2017-Dec-03 09:30N 51°18' E 003°14'0 0.0
2017-Dec-03 09:00N 51°18' E 003°14'0 0.0
2017-Dec-03 08:30N 51°18' E 003°14'0 0.0
2017-Dec-03 08:00N 51°18' E 003°14'0 0.0
2017-Dec-03 07:30N 51°18' E 003°14'0 0.0
2017-Dec-03 07:00N 51°18' E 003°14'0 0.0
2017-Dec-03 06:30N 51°18' E 003°14'0 0.0
2017-Dec-03 06:00N 51°18' E 003°14'0 0.0
2017-Dec-03 05:30N 51°18' E 003°14'0 0.0
2017-Dec-03 05:00N 51°18' E 003°14'0 0.0
2017-Dec-03 04:30N 51°18' E 003°14'0 0.0
2017-Dec-03 04:00N 51°18' E 003°14'0 0.0
2017-Dec-03 03:30N 51°18' E 003°14'1 1.3
2017-Dec-03 03:00N 51°19' E 003°13'1 2.4
2017-Dec-03 02:30N 51°20' E 003°13'1 2.0
2017-Dec-03 02:00N 51°21' E 003°12'510.6
2017-Dec-03 01:30N 51°24' E 003°06'917.4
2017-Dec-03 01:00N 51°22' E 002°52'713.2
2017-Dec-03 00:30N 51°22' E 002°41'611.3
2017-Dec-02 23:59N 51°23' E 002°32'0 0.8
2017-Dec-02 23:29N 51°22' E 002°32'2 4.6
2017-Dec-02 23:00N 51°22' E 002°29'3 5.9
2017-Dec-02 22:30N 51°20' E 002°24'5 9.3
2017-Dec-02 22:00N 51°18' E 002°18'918.5
2017-Dec-02 21:30N 51°13' E 002°06'1019.3
2017-Dec-02 21:01N 51°09' E 001°52'918.8
2017-Dec-02 20:30N 51°02' E 001°41'918.6
2017-Dec-02 20:00N 50°55' E 001°32'917.8
2017-Dec-02 19:31N 50°47' E 001°26'917.7
2017-Dec-02 18:59N 50°40' E 001°17'1118.2
2017-Dec-02 18:23N 50°32' E 001°04'1318.4
2017-Dec-02 17:40N 50°27' E 000°45'418.6
2017-Dec-02 17:27N 50°26' E 000°38'918.4
2017-Dec-02 16:56N 50°24' E 000°24'818.1
2017-Dec-02 16:30N 50°22' E 000°12'917.8
2017-Dec-02 16:00N 50°20' W 000°01'816.8
2017-Dec-02 15:30N 50°23' W 000°14'917.8
2017-Dec-02 15:00N 50°28' W 000°25'917.7
2017-Dec-02 14:30N 50°33' W 000°37'817.0
2017-Dec-02 14:00N 50°37' W 000°49'713.8
2017-Dec-02 13:30N 50°41' W 000°57'612.2
2017-Dec-02 13:00N 50°44' W 001°05'815.6
2017-Dec-02 12:30N 50°46' W 001°17'4 8.9
2017-Dec-02 12:00N 50°51' W 001°20'4 8.8
2017-Dec-02 11:30N 50°54' W 001°25'1 1.2
2017-Dec-02 10:58N 50°54' W 001°25'0 0.0
2017-Dec-02 10:25N 50°54' W 001°25'0 0.0
2017-Dec-02 09:58N 50°54' W 001°25'0 0.0
2017-Dec-02 09:25N 50°54' W 001°25'0 0.0
2017-Dec-02 08:58N 50°54' W 001°25'0 0.0
2017-Dec-02 08:28N 50°54' W 001°25'0 0.0
2017-Dec-02 07:13N 50°54' W 001°25'0 0.0
2017-Dec-02 06:37N 50°54' W 001°25'0 0.0
2017-Dec-02 05:43N 50°54' W 001°25'0 0.0
2017-Dec-02 05:28N 50°54' W 001°25'0 0.0
2017-Dec-02 04:58N 50°54' W 001°25'0 0.0
2017-Dec-02 04:22N 50°54' W 001°25'0 0.0
2017-Dec-02 03:55N 50°54' W 001°25'0 0.1
2017-Dec-02 03:30N 50°54' W 001°25'2 4.4
2017-Dec-02 03:00N 50°52' W 001°23'4 9.1
2017-Dec-02 02:30N 50°49' W 001°18'4 8.1
2017-Dec-02 02:01N 50°46' W 001°14'714.9
2017-Dec-02 01:30N 50°44' W 001°03'510.6
2017-Dec-02 01:00N 50°40' W 000°57'3 6.5
2017-Dec-02 00:31N 50°37' W 000°60'5 9.2
2017-Dec-02 00:01N 50°33' W 001°04'5 9.7
2017-Dec-01 23:31N 50°30' W 001°10'5 9.5
2017-Dec-01 23:00N 50°28' W 001°16'1015.0
2017-Dec-01 22:20N 50°22' W 001°30'515.8
2017-Dec-01 22:00N 50°19' W 001°36'816.3
2017-Dec-01 21:30N 50°16' W 001°48'816.7
2017-Dec-01 21:00N 50°11' W 001°58'917.5
2017-Dec-01 20:30N 50°04' W 002°07'917.8
2017-Dec-01 20:01N 49°58' W 002°16'918.3
2017-Dec-01 19:30N 49°55' W 002°30'918.4
2017-Dec-01 19:00N 49°51' W 002°43'1518.2
2017-Dec-01 18:11N 49°45' W 003°04'518.1
2017-Dec-01 17:56N 49°43' W 003°10'1118.2
2017-Dec-01 17:21N 49°38' W 003°24'6618.4
2017-Dec-01 13:48N 49°04' W 004°51'618.4
2017-Dec-01 13:27N 49°01' W 004°59'  
Track history (hours):
 
Tides and Currents Weather Stations Pressure Air Temp Water Temp Dewpoint Dewpoint Depression Visibility Wind Speed Wind Dir Waves Ship Positions

Dalian Highway

Last reported at 2017-Dec-11 13:17 UTC. Time now 2017-Dec-12 20:02 UTC.
Position N 49°59' W 000°56'.

Length 199 m; draft 9.2 m.

Type: Cargo ship. MMSI: 357694000.

Date/timePositionNaut miles runAvg speedWind from/ knotsBaromVisibWave heightAir tempDewpointWater temp
2017-Dec-11 13:17N 49°59' W 000°56'312.2
2017-Dec-11 13:00N 49°57' W 000°51'612.6
2017-Dec-11 12:30N 49°53' W 000°44'510.6
2017-Dec-11 12:00N 49°50' W 000°37'3 6.2
2017-Dec-11 11:30N 49°48' W 000°34'2 4.6
2017-Dec-11 11:00N 49°46' W 000°32'3 5.4
2017-Dec-11 10:30N 49°43' W 000°31'1 1.1
2017-Dec-11 10:00N 49°43' W 000°31'3 6.6
2017-Dec-11 09:30N 49°46' W 000°35'3 6.4
2017-Dec-11 09:00N 49°48' W 000°38'4 7.0
2017-Dec-11 08:30N 49°50' W 000°42'4 7.1
2017-Dec-11 08:00N 49°53' W 000°46'2 4.8
2017-Dec-11 07:30N 49°55' W 000°47'3 6.3
2017-Dec-11 07:00N 49°54' W 000°42'3 6.1
2017-Dec-11 06:30N 49°53' W 000°38'3 5.3
2017-Dec-11 06:00N 49°51' W 000°35'2 4.2
2017-Dec-11 05:30N 49°50' W 000°32'1 2.4
2017-Dec-11 05:00N 49°50' W 000°30'1 1.9
2017-Dec-11 04:30N 49°50' W 000°29'1 1.4
2017-Dec-11 04:00N 49°49' W 000°28'1 2.1
2017-Dec-11 03:30N 49°48' W 000°28'1 2.0
2017-Dec-11 03:00N 49°47' W 000°28'1 2.2
2017-Dec-11 02:30N 49°46' W 000°28'1 1.8
2017-Dec-11 02:00N 49°46' W 000°29'1 1.9
2017-Dec-11 01:30N 49°45' W 000°30'1 2.1
2017-Dec-11 01:00N 49°45' W 000°32'1 2.6
2017-Dec-11 00:30N 49°45' W 000°34'1 2.0
2017-Dec-11 00:00N 49°45' W 000°35'0 1.0
2017-Dec-10 23:30N 49°45' W 000°36'1 1.1
2017-Dec-10 23:00N 49°45' W 000°37'0 0.8
2017-Dec-10 22:30N 49°45' W 000°37'0 0.7
2017-Dec-10 22:00N 49°45' W 000°38'1 2.8
2017-Dec-10 21:30N 49°46' W 000°40'4 8.8
2017-Dec-10 21:00N 49°48' W 000°46'4 8.4
2017-Dec-10 20:30N 49°50' W 000°51'4 8.0
2017-Dec-10 20:00N 49°52' W 000°57'4 7.0
2017-Dec-10 19:30N 49°54' W 001°02'56 9.6
2017-Dec-10 13:42N 49°51' W 002°28'312.5
2017-Dec-10 13:26N 49°50' W 002°33'612.7
2017-Dec-10 12:59N 49°49' W 002°41'712.8
2017-Dec-10 12:28N 49°48' W 002°51'914.8
2017-Dec-10 11:54N 49°46' W 003°04'616.3
2017-Dec-10 11:31N 49°46' W 003°14'816.5
2017-Dec-10 11:00N 49°43' W 003°26'610.8
2017-Dec-10 10:29N 49°42' W 003°35'0 0.7
2017-Dec-10 09:59N 49°42' W 003°35'1 2.1
2017-Dec-10 09:19N 49°43' W 003°33'1 4.1
2017-Dec-10 09:00N 49°44' W 003°31'3 5.6
2017-Dec-10 08:30N 49°45' W 003°28'4 8.6
2017-Dec-10 08:00N 49°47' W 003°22'510.7
2017-Dec-10 07:30N 49°50' W 003°14'714.3
2017-Dec-10 07:00N 49°53' W 003°05'816.1
2017-Dec-10 06:31N 49°57' W 002°54'917.5
2017-Dec-10 06:00N 50°00' W 002°41'1018.9
2017-Dec-10 05:30N 50°03' W 002°27'6317.8
2017-Dec-10 01:59N 50°21' W 000°53'1016.0
2017-Dec-10 01:20N 50°24' W 000°38'515.7
2017-Dec-10 01:00N 50°25' W 000°30'816.0
2017-Dec-10 00:30N 50°29' W 000°18'816.7
2017-Dec-10 00:01N 50°30' W 000°05'917.8
2017-Dec-09 23:31N 50°32' E 000°08'918.2
2017-Dec-09 23:01N 50°35' E 000°22'1019.0
2017-Dec-09 22:31N 50°38' E 000°36'1019.7
2017-Dec-09 22:01N 50°44' E 000°49'1019.8
2017-Dec-09 21:31N 50°50' E 001°01'1019.2
2017-Dec-09 21:00N 50°56' E 001°12'817.0
2017-Dec-09 20:30N 51°03' E 001°21'4 7.4
2017-Dec-09 20:00N 51°06' E 001°23'612.5
2017-Dec-09 19:30N 51°08' E 001°33'713.7
2017-Dec-09 19:00N 51°12' E 001°41'612.6
2017-Dec-09 18:30N 51°17' E 001°47'816.5
2017-Dec-09 18:01N 51°25' E 001°54'816.5
2017-Dec-09 17:30N 51°31' E 002°03'816.6
2017-Dec-09 17:00N 51°37' E 002°12'9116.9
2017-Dec-09 11:37N 52°48' E 003°44'215.6
2017-Dec-09 11:30N 52°49' E 003°46'815.2
2017-Dec-09 11:00N 52°55' E 003°55'815.1
2017-Dec-09 10:30N 52°60' E 004°04'815.0
2017-Dec-09 10:00N 53°05' E 004°14'815.0
2017-Dec-09 09:29N 53°11' E 004°23'714.7
2017-Dec-09 09:00N 53°17' E 004°28'714.4
2017-Dec-09 08:30N 53°24' E 004°32'714.1
2017-Dec-09 07:59N 53°30' E 004°39'714.1
2017-Dec-09 07:30N 53°32' E 004°49'714.8
2017-Dec-09 07:00N 53°35' E 005°01'815.2
2017-Dec-09 06:28N 53°38' E 005°14'815.6
2017-Dec-09 05:56N 53°41' E 005°27'4710.8
2017-Dec-09 01:35N 53°32' E 006°45'1 9.1
2017-Dec-09 01:30N 53°31' E 006°46'612.6
2017-Dec-09 01:01N 53°27' E 006°53'612.9
2017-Dec-09 00:30N 53°22' E 006°59'3 6.8
2017-Dec-09 00:00N 53°19' E 007°03'3 6.8
2017-Dec-08 23:30N 53°20' E 007°09'1 1.3
2017-Dec-08 22:55N 53°20' E 007°10'0 0.0
2017-Dec-08 22:28N 53°20' E 007°10'0 0.0
2017-Dec-08 21:58N 53°20' E 007°10'0 0.0
2017-Dec-08 21:25N 53°20' E 007°10'0 0.0
2017-Dec-08 20:58N 53°20' E 007°10'0 0.0
2017-Dec-08 20:25N 53°20' E 007°10'0 0.0
2017-Dec-08 19:58N 53°20' E 007°10'0 0.0
2017-Dec-08 19:28N 53°20' E 007°10'0 0.0
2017-Dec-08 18:58N 53°20' E 007°10'0 0.0
2017-Dec-08 18:28N 53°20' E 007°10'0 0.0
2017-Dec-08 17:58N 53°20' E 007°10'0 0.0
2017-Dec-08 17:28N 53°20' E 007°10'0 0.0
2017-Dec-08 16:55N 53°20' E 007°10'0 0.0
2017-Dec-08 16:28N 53°20' E 007°10'0 0.0
2017-Dec-08 15:55N 53°20' E 007°10'0 0.0
2017-Dec-08 15:28N 53°20' E 007°10'0 0.0
2017-Dec-08 14:58N 53°20' E 007°10'0 0.0
2017-Dec-08 14:28N 53°20' E 007°10'0 0.0
2017-Dec-08 13:58N 53°20' E 007°10'0 0.0
2017-Dec-08 13:28N 53°20' E 007°10'0 0.0
2017-Dec-08 12:55N 53°20' E 007°10'0 0.0
2017-Dec-08 12:28N 53°20' E 007°10'0 0.0
2017-Dec-08 11:58N 53°20' E 007°10'0 0.0
2017-Dec-08 11:28N 53°20' E 007°10'0 0.0
2017-Dec-08 10:58N 53°20' E 007°10'0 0.0
2017-Dec-08 10:25N 53°20' E 007°10'0 0.0
2017-Dec-08 09:58N 53°20' E 007°10'0 0.0
2017-Dec-08 09:19N 53°20' E 007°10'0 0.0
2017-Dec-08 08:58N 53°20' E 007°10'0 0.0
2017-Dec-08 08:28N 53°20' E 007°10'0 0.0
2017-Dec-08 07:58N 53°20' E 007°10'0 0.0
2017-Dec-08 07:22N 53°20' E 007°10'0 0.0
2017-Dec-08 06:58N 53°20' E 007°10'0 0.0
2017-Dec-08 06:28N 53°20' E 007°10'0 0.0
2017-Dec-08 05:58N 53°20' E 007°10'0 0.0
2017-Dec-08 05:28N 53°20' E 007°10'0 0.0
2017-Dec-08 04:58N 53°20' E 007°10'0 0.0
2017-Dec-08 04:25N 53°20' E 007°10'0 0.0
2017-Dec-08 03:58N 53°20' E 007°10'0 0.0
2017-Dec-08 03:28N 53°20' E 007°10'0 0.0
2017-Dec-08 02:58N 53°20' E 007°10'0 0.0
2017-Dec-08 02:25N 53°20' E 007°10'0 0.0
2017-Dec-08 01:58N 53°20' E 007°10'0 0.0
2017-Dec-08 01:28N 53°20' E 007°10'0 0.0
2017-Dec-08 00:58N 53°20' E 007°10'0 0.0
2017-Dec-08 00:28N 53°20' E 007°10'0 0.0
2017-Dec-07 23:58N 53°20' E 007°10'0 0.0
2017-Dec-07 23:25N 53°20' E 007°10'0 0.0
2017-Dec-07 22:58N 53°20' E 007°10'0 0.0
2017-Dec-07 22:28N 53°20' E 007°10'0 0.0
2017-Dec-07 21:55N 53°20' E 007°10'0 0.0
2017-Dec-07 21:28N 53°20' E 007°10'0 0.0
2017-Dec-07 20:58N 53°20' E 007°10'0 0.0
2017-Dec-07 20:25N 53°20' E 007°10'0 0.0
2017-Dec-07 19:55N 53°20' E 007°10'0 0.0
2017-Dec-07 19:25N 53°20' E 007°10'0 0.0
2017-Dec-07 18:58N 53°20' E 007°10'0 0.0
2017-Dec-07 18:25N 53°20' E 007°10'0 0.0
2017-Dec-07 17:55N 53°20' E 007°10'0 0.0
2017-Dec-07 17:28N 53°20' E 007°10'0 0.0
2017-Dec-07 16:58N 53°20' E 007°10'0 0.0
2017-Dec-07 16:28N 53°20' E 007°10'0 0.0
2017-Dec-07 15:58N 53°20' E 007°10'0 0.0
2017-Dec-07 15:28N 53°20' E 007°10'0 0.4
2017-Dec-07 15:00N 53°20' E 007°10'3 5.8
2017-Dec-07 14:30N 53°20' E 007°05'510.9
2017-Dec-07 14:00N 53°23' E 006°58'815.1
2017-Dec-07 13:30N 53°29' E 006°50'28 3.0
2017-Dec-07 04:04N 53°55' E 007°06'114.9
2017-Dec-07 03:58N 53°56' E 007°08'1914.4
2017-Dec-07 02:39N 53°59' E 007°40'315.8
2017-Dec-07 02:29N 53°57' E 007°43'914.7
2017-Dec-07 01:52N 53°52' E 007°56'615.5
2017-Dec-07 01:30N 53°50' E 008°05'815.5
2017-Dec-07 01:01N 53°44' E 008°14'714.6
2017-Dec-07 00:30N 53°40' E 008°23'611.8
2017-Dec-07 00:00N 53°36' E 008°31'2 4.8
2017-Dec-06 23:30N 53°34' E 008°33'0 0.9
2017-Dec-06 23:00N 53°34' E 008°33'0 0.8
2017-Dec-06 22:30N 53°34' E 008°33'0 0.7
2017-Dec-06 21:59N 53°34' E 008°34'0 0.0
2017-Dec-06 21:28N 53°34' E 008°34'0 0.0
2017-Dec-06 20:59N 53°34' E 008°34'  
2017-Dec-04 10:30N 51°18' E 003°14'0 0.0
2017-Dec-04 10:00N 51°18' E 003°14'0 0.0
2017-Dec-04 09:30N 51°18' E 003°14'0 0.0
2017-Dec-04 09:00N 51°18' E 003°14'0 0.0
2017-Dec-04 08:30N 51°18' E 003°14'0 0.0
2017-Dec-04 08:00N 51°18' E 003°14'0 0.0
2017-Dec-04 07:30N 51°18' E 003°14'0 0.0
2017-Dec-04 07:00N 51°18' E 003°14'0 0.0
2017-Dec-04 06:30N 51°18' E 003°14'0 0.0
2017-Dec-04 06:00N 51°18' E 003°14'0 0.0
2017-Dec-04 05:30N 51°18' E 003°14'0 0.0
2017-Dec-04 05:00N 51°18' E 003°14'0 0.0
2017-Dec-04 04:30N 51°18' E 003°14'0 0.0
2017-Dec-04 04:00N 51°18' E 003°14'0 0.0
2017-Dec-04 03:30N 51°18' E 003°14'0 0.0
2017-Dec-04 03:00N 51°18' E 003°14'0 0.0
2017-Dec-04 02:30N 51°18' E 003°14'0 0.0
2017-Dec-04 02:00N 51°18' E 003°14'0 0.0
2017-Dec-04 01:30N 51°18' E 003°14'0 0.0
2017-Dec-04 01:00N 51°18' E 003°14'0 0.0
2017-Dec-04 00:30N 51°18' E 003°14'0 0.0
2017-Dec-04 00:00N 51°18' E 003°14'0 0.0
2017-Dec-03 23:30N 51°18' E 003°14'0 0.0
2017-Dec-03 23:00N 51°18' E 003°14'0 0.0
2017-Dec-03 22:30N 51°18' E 003°14'0 0.0
2017-Dec-03 22:00N 51°18' E 003°14'0 0.0
2017-Dec-03 21:30N 51°18' E 003°14'0 0.0
2017-Dec-03 20:57N 51°18' E 003°14'0 0.0
2017-Dec-03 20:30N 51°18' E 003°14'0 0.0
2017-Dec-03 20:00N 51°18' E 003°14'0 0.0
2017-Dec-03 19:30N 51°18' E 003°14'0 0.0
2017-Dec-03 19:00N 51°18' E 003°14'0 0.0
2017-Dec-03 18:30N 51°18' E 003°14'0 0.0
2017-Dec-03 18:00N 51°18' E 003°14'0 0.0
2017-Dec-03 17:30N 51°18' E 003°14'0 0.0
2017-Dec-03 17:00N 51°18' E 003°14'0 0.0
2017-Dec-03 16:30N 51°18' E 003°14'0 0.0
2017-Dec-03 15:57N 51°18' E 003°14'0 0.0
2017-Dec-03 15:30N 51°18' E 003°14'0 0.0
2017-Dec-03 15:00N 51°18' E 003°14'0 0.0
2017-Dec-03 14:30N 51°18' E 003°14'1 1.2
2017-Dec-03 14:00N 51°18' E 003°14'0 0.2
2017-Dec-03 13:30N 51°18' E 003°14'0 0.0
2017-Dec-03 13:00N 51°18' E 003°14'0 0.0
2017-Dec-03 12:30N 51°18' E 003°14'0 0.0
2017-Dec-03 12:00N 51°18' E 003°14'0 0.0
2017-Dec-03 11:30N 51°18' E 003°14'0 0.0
2017-Dec-03 11:01N 51°18' E 003°14'0 0.0
2017-Dec-03 10:30N 51°18' E 003°14'0 0.0
2017-Dec-03 10:00N 51°18' E 003°14'0 0.0
2017-Dec-03 09:30N 51°18' E 003°14'0 0.0
2017-Dec-03 09:00N 51°18' E 003°14'0 0.0
2017-Dec-03 08:30N 51°18' E 003°14'0 0.0
2017-Dec-03 08:00N 51°18' E 003°14'0 0.0
2017-Dec-03 07:30N 51°18' E 003°14'0 0.0
2017-Dec-03 07:00N 51°18' E 003°14'0 0.0
2017-Dec-03 06:30N 51°18' E 003°14'0 0.0
2017-Dec-03 06:00N 51°18' E 003°14'0 0.0
2017-Dec-03 05:30N 51°18' E 003°14'0 0.0
2017-Dec-03 05:00N 51°18' E 003°14'0 0.0
2017-Dec-03 04:30N 51°18' E 003°14'0 0.0
2017-Dec-03 04:00N 51°18' E 003°14'0 0.0
2017-Dec-03 03:30N 51°18' E 003°14'1 1.3
2017-Dec-03 03:00N 51°19' E 003°13'1 2.4
2017-Dec-03 02:30N 51°20' E 003°13'1 2.0
2017-Dec-03 02:00N 51°21' E 003°12'510.6
2017-Dec-03 01:30N 51°24' E 003°06'917.4
2017-Dec-03 01:00N 51°22' E 002°52'713.2
2017-Dec-03 00:30N 51°22' E 002°41'611.3
2017-Dec-02 23:59N 51°23' E 002°32'0 0.8
2017-Dec-02 23:29N 51°22' E 002°32'2 4.6
2017-Dec-02 23:00N 51°22' E 002°29'3 5.9
2017-Dec-02 22:30N 51°20' E 002°24'5 9.3
2017-Dec-02 22:00N 51°18' E 002°18'918.5
2017-Dec-02 21:30N 51°13' E 002°06'1019.3
2017-Dec-02 21:01N 51°09' E 001°52'918.8
2017-Dec-02 20:30N 51°02' E 001°41'918.6
2017-Dec-02 20:00N 50°55' E 001°32'917.8
2017-Dec-02 19:31N 50°47' E 001°26'917.7
2017-Dec-02 18:59N 50°40' E 001°17'1118.2
2017-Dec-02 18:23N 50°32' E 001°04'1318.4
2017-Dec-02 17:40N 50°27' E 000°45'418.6
2017-Dec-02 17:27N 50°26' E 000°38'918.4
2017-Dec-02 16:56N 50°24' E 000°24'818.1
2017-Dec-02 16:30N 50°22' E 000°12'917.8
2017-Dec-02 16:00N 50°20' W 000°01'816.8
2017-Dec-02 15:30N 50°23' W 000°14'917.8
2017-Dec-02 15:00N 50°28' W 000°25'917.7
2017-Dec-02 14:30N 50°33' W 000°37'817.0
2017-Dec-02 14:00N 50°37' W 000°49'713.8
2017-Dec-02 13:30N 50°41' W 000°57'612.2
2017-Dec-02 13:00N 50°44' W 001°05'815.6
2017-Dec-02 12:30N 50°46' W 001°17'4 8.9
2017-Dec-02 12:00N 50°51' W 001°20'4 8.8
2017-Dec-02 11:30N 50°54' W 001°25'1 1.2
2017-Dec-02 10:58N 50°54' W 001°25'0 0.0
2017-Dec-02 10:25N 50°54' W 001°25'0 0.0
2017-Dec-02 09:58N 50°54' W 001°25'0 0.0
2017-Dec-02 09:25N 50°54' W 001°25'0 0.0
2017-Dec-02 08:58N 50°54' W 001°25'0 0.0
2017-Dec-02 08:28N 50°54' W 001°25'0 0.0
2017-Dec-02 07:13N 50°54' W 001°25'0 0.0
2017-Dec-02 06:37N 50°54' W 001°25'0 0.0
2017-Dec-02 05:43N 50°54' W 001°25'0 0.0
2017-Dec-02 05:28N 50°54' W 001°25'0 0.0
2017-Dec-02 04:58N 50°54' W 001°25'0 0.0
2017-Dec-02 04:22N 50°54' W 001°25'0 0.0
2017-Dec-02 03:55N 50°54' W 001°25'0 0.1
2017-Dec-02 03:30N 50°54' W 001°25'2 4.4
2017-Dec-02 03:00N 50°52' W 001°23'4 9.1
2017-Dec-02 02:30N 50°49' W 001°18'4 8.1
2017-Dec-02 02:01N 50°46' W 001°14'714.9
2017-Dec-02 01:30N 50°44' W 001°03'510.6
2017-Dec-02 01:00N 50°40' W 000°57'3 6.5
2017-Dec-02 00:31N 50°37' W 000°60'5 9.2
2017-Dec-02 00:01N 50°33' W 001°04'5 9.7
2017-Dec-01 23:31N 50°30' W 001°10'5 9.5
2017-Dec-01 23:00N 50°28' W 001°16'1015.0
2017-Dec-01 22:20N 50°22' W 001°30'515.8
2017-Dec-01 22:00N 50°19' W 001°36'816.3
2017-Dec-01 21:30N 50°16' W 001°48'816.7
2017-Dec-01 21:00N 50°11' W 001°58'917.5
2017-Dec-01 20:30N 50°04' W 002°07'917.8
2017-Dec-01 20:01N 49°58' W 002°16'918.3
2017-Dec-01 19:30N 49°55' W 002°30'918.4
2017-Dec-01 19:00N 49°51' W 002°43'1518.2
2017-Dec-01 18:11N 49°45' W 003°04'518.1
2017-Dec-01 17:56N 49°43' W 003°10'1118.2
2017-Dec-01 17:21N 49°38' W 003°24'6618.4
2017-Dec-01 13:48N 49°04' W 004°51'618.4
2017-Dec-01 13:27N 49°01' W 004°59'  

Dump ship's entire track history